sensor_id;sensor_type;location;lat;lon;timestamp;P1;durP1;ratioP1;P2;durP2;ratioP2
21675;SDS011;10999;51.332;9.458;2023-05-31T00:00:12;8.27;;;3.53;;
21675;SDS011;10999;51.332;9.458;2023-05-31T00:02:39;12.52;;;4.53;;
21675;SDS011;10999;51.332;9.458;2023-05-31T00:05:07;11.65;;;4.32;;
21675;SDS011;10999;51.332;9.458;2023-05-31T00:07:34;11.20;;;4.03;;
21675;SDS011;10999;51.332;9.458;2023-05-31T00:10:01;11.00;;;3.67;;
21675;SDS011;10999;51.332;9.458;2023-05-31T00:12:27;12.23;;;3.75;;
21675;SDS011;10999;51.332;9.458;2023-05-31T00:14:54;10.00;;;3.95;;
21675;SDS011;10999;51.332;9.458;2023-05-31T00:17:21;9.82;;;3.88;;
21675;SDS011;10999;51.332;9.458;2023-05-31T00:19:50;7.90;;;3.67;;
21675;SDS011;10999;51.332;9.458;2023-05-31T00:22:17;9.18;;;3.75;;
21675;SDS011;10999;51.332;9.458;2023-05-31T00:24:44;9.32;;;4.10;;
21675;SDS011;10999;51.332;9.458;2023-05-31T00:27:11;11.38;;;3.63;;
21675;SDS011;10999;51.332;9.458;2023-05-31T00:29:37;8.85;;;3.45;;
21675;SDS011;10999;51.332;9.458;2023-05-31T00:32:04;7.88;;;3.55;;
21675;SDS011;10999;51.332;9.458;2023-05-31T00:34:31;12.05;;;3.65;;
21675;SDS011;10999;51.332;9.458;2023-05-31T00:36:58;8.98;;;3.33;;
21675;SDS011;10999;51.332;9.458;2023-05-31T00:39:24;10.85;;;3.78;;
21675;SDS011;10999;51.332;9.458;2023-05-31T00:41:51;11.27;;;3.55;;
21675;SDS011;10999;51.332;9.458;2023-05-31T00:44:18;11.27;;;3.85;;
21675;SDS011;10999;51.332;9.458;2023-05-31T00:46:45;9.75;;;3.35;;
21675;SDS011;10999;51.332;9.458;2023-05-31T00:49:12;12.88;;;4.38;;
21675;SDS011;10999;51.332;9.458;2023-05-31T00:51:39;11.38;;;3.42;;
21675;SDS011;10999;51.332;9.458;2023-05-31T00:54:06;10.98;;;3.40;;
21675;SDS011;10999;51.332;9.458;2023-05-31T00:56:34;10.20;;;3.85;;
21675;SDS011;10999;51.332;9.458;2023-05-31T00:59:00;12.88;;;4.43;;
21675;SDS011;10999;51.332;9.458;2023-05-31T01:01:27;9.25;;;3.78;;
21675;SDS011;10999;51.332;9.458;2023-05-31T01:03:59;11.00;;;3.97;;
21675;SDS011;10999;51.332;9.458;2023-05-31T01:06:28;9.20;;;3.17;;
21675;SDS011;10999;51.332;9.458;2023-05-31T01:09:01;10.27;;;3.65;;
21675;SDS011;10999;51.332;9.458;2023-05-31T01:11:35;9.68;;;4.03;;
21675;SDS011;10999;51.332;9.458;2023-05-31T01:20:01;8.40;;;3.45;;
21675;SDS011;10999;51.332;9.458;2023-05-31T01:22:40;9.15;;;4.47;;
21675;SDS011;10999;51.332;9.458;2023-05-31T01:28:04;9.52;;;4.20;;
21675;SDS011;10999;51.332;9.458;2023-05-31T01:30:33;9.80;;;3.63;;
21675;SDS011;10999;51.332;9.458;2023-05-31T01:33:04;9.57;;;4.03;;
21675;SDS011;10999;51.332;9.458;2023-05-31T01:35:35;9.50;;;3.38;;
21675;SDS011;10999;51.332;9.458;2023-05-31T01:38:02;9.50;;;3.35;;
21675;SDS011;10999;51.332;9.458;2023-05-31T01:40:29;9.05;;;3.65;;
21675;SDS011;10999;51.332;9.458;2023-05-31T01:42:56;12.55;;;4.30;;
21675;SDS011;10999;51.332;9.458;2023-05-31T01:45:24;11.88;;;3.78;;
21675;SDS011;10999;51.332;9.458;2023-05-31T01:47:58;10.55;;;4.05;;
21675;SDS011;10999;51.332;9.458;2023-05-31T01:50:31;10.50;;;4.20;;
21675;SDS011;10999;51.332;9.458;2023-05-31T01:53:00;10.98;;;3.58;;
21675;SDS011;10999;51.332;9.458;2023-05-31T01:55:27;9.98;;;4.10;;
21675;SDS011;10999;51.332;9.458;2023-05-31T01:57:54;9.68;;;3.58;;
21675;SDS011;10999;51.332;9.458;2023-05-31T02:00:23;8.43;;;3.58;;
21675;SDS011;10999;51.332;9.458;2023-05-31T02:02:50;9.82;;;3.75;;
21675;SDS011;10999;51.332;9.458;2023-05-31T02:05:17;9.00;;;3.35;;
21675;SDS011;10999;51.332;9.458;2023-05-31T02:07:45;8.07;;;3.45;;
21675;SDS011;10999;51.332;9.458;2023-05-31T02:10:13;9.60;;;3.97;;
21675;SDS011;10999;51.332;9.458;2023-05-31T02:12:40;8.43;;;3.30;;
21675;SDS011;10999;51.332;9.458;2023-05-31T02:15:07;10.93;;;3.80;;
21675;SDS011;10999;51.332;9.458;2023-05-31T02:17:37;11.38;;;4.22;;
21675;SDS011;10999;51.332;9.458;2023-05-31T02:20:09;9.75;;;3.60;;
21675;SDS011;10999;51.332;9.458;2023-05-31T02:22:40;11.43;;;3.38;;
21675;SDS011;10999;51.332;9.458;2023-05-31T02:25:08;10.95;;;3.90;;
21675;SDS011;10999;51.332;9.458;2023-05-31T02:27:36;11.55;;;3.70;;
21675;SDS011;10999;51.332;9.458;2023-05-31T02:30:04;7.30;;;3.40;;
21675;SDS011;10999;51.332;9.458;2023-05-31T02:32:31;12.00;;;4.10;;
21675;SDS011;10999;51.332;9.458;2023-05-31T02:35:05;12.05;;;4.00;;
21675;SDS011;10999;51.332;9.458;2023-05-31T02:37:33;7.50;;;2.97;;
21675;SDS011;10999;51.332;9.458;2023-05-31T02:40:01;9.48;;;3.60;;
21675;SDS011;10999;51.332;9.458;2023-05-31T02:42:38;11.48;;;3.85;;
21675;SDS011;10999;51.332;9.458;2023-05-31T02:45:06;8.35;;;3.85;;
21675;SDS011;10999;51.332;9.458;2023-05-31T02:47:35;10.77;;;3.33;;
21675;SDS011;10999;51.332;9.458;2023-05-31T02:50:03;7.68;;;3.22;;
21675;SDS011;10999;51.332;9.458;2023-05-31T02:52:34;8.13;;;3.00;;
21675;SDS011;10999;51.332;9.458;2023-05-31T02:55:01;9.38;;;3.50;;
21675;SDS011;10999;51.332;9.458;2023-05-31T02:57:28;9.95;;;3.45;;
21675;SDS011;10999;51.332;9.458;2023-05-31T02:59:56;7.93;;;3.15;;
21675;SDS011;10999;51.332;9.458;2023-05-31T03:02:24;10.13;;;4.38;;
21675;SDS011;10999;51.332;9.458;2023-05-31T03:04:51;9.82;;;3.95;;
21675;SDS011;10999;51.332;9.458;2023-05-31T03:07:18;10.38;;;3.72;;
21675;SDS011;10999;51.332;9.458;2023-05-31T03:09:45;9.32;;;3.70;;
21675;SDS011;10999;51.332;9.458;2023-05-31T03:12:12;10.13;;;3.70;;
21675;SDS011;10999;51.332;9.458;2023-05-31T03:14:38;9.98;;;3.25;;
21675;SDS011;10999;51.332;9.458;2023-05-31T03:17:05;11.15;;;4.43;;
21675;SDS011;10999;51.332;9.458;2023-05-31T03:19:32;7.95;;;3.08;;
21675;SDS011;10999;51.332;9.458;2023-05-31T03:21:59;9.35;;;3.35;;
21675;SDS011;10999;51.332;9.458;2023-05-31T03:24:26;10.15;;;3.92;;
21675;SDS011;10999;51.332;9.458;2023-05-31T03:26:54;8.77;;;3.47;;
21675;SDS011;10999;51.332;9.458;2023-05-31T03:29:23;7.95;;;3.53;;
21675;SDS011;10999;51.332;9.458;2023-05-31T03:31:50;10.90;;;4.00;;
21675;SDS011;10999;51.332;9.458;2023-05-31T03:34:17;8.85;;;3.60;;
21675;SDS011;10999;51.332;9.458;2023-05-31T03:36:44;9.25;;;3.92;;
21675;SDS011;10999;51.332;9.458;2023-05-31T03:39:11;11.63;;;3.63;;
21675;SDS011;10999;51.332;9.458;2023-05-31T03:41:38;11.20;;;3.92;;
21675;SDS011;10999;51.332;9.458;2023-05-31T03:44:04;11.98;;;3.88;;
21675;SDS011;10999;51.332;9.458;2023-05-31T03:46:31;11.32;;;3.95;;
21675;SDS011;10999;51.332;9.458;2023-05-31T03:48:58;11.35;;;4.05;;
21675;SDS011;10999;51.332;9.458;2023-05-31T03:51:25;12.35;;;4.30;;
21675;SDS011;10999;51.332;9.458;2023-05-31T03:53:52;8.68;;;3.65;;
21675;SDS011;10999;51.332;9.458;2023-05-31T03:56:19;9.13;;;3.63;;
21675;SDS011;10999;51.332;9.458;2023-05-31T03:58:47;10.65;;;4.07;;
21675;SDS011;10999;51.332;9.458;2023-05-31T04:01:14;9.32;;;3.95;;
21675;SDS011;10999;51.332;9.458;2023-05-31T04:03:42;8.25;;;3.75;;
21675;SDS011;10999;51.332;9.458;2023-05-31T04:06:09;9.52;;;3.65;;
21675;SDS011;10999;51.332;9.458;2023-05-31T04:08:36;10.60;;;3.75;;
21675;SDS011;10999;51.332;9.458;2023-05-31T04:11:03;11.10;;;4.07;;
21675;SDS011;10999;51.332;9.458;2023-05-31T04:13:30;10.70;;;3.83;;
21675;SDS011;10999;51.332;9.458;2023-05-31T04:15:57;10.40;;;3.72;;
21675;SDS011;10999;51.332;9.458;2023-05-31T04:18:24;9.88;;;3.60;;
21675;SDS011;10999;51.332;9.458;2023-05-31T04:20:50;9.80;;;3.65;;
21675;SDS011;10999;51.332;9.458;2023-05-31T04:23:17;10.60;;;4.07;;
21675;SDS011;10999;51.332;9.458;2023-05-31T04:25:44;13.15;;;4.60;;
21675;SDS011;10999;51.332;9.458;2023-05-31T04:28:11;11.10;;;3.85;;
21675;SDS011;10999;51.332;9.458;2023-05-31T04:30:39;9.68;;;4.32;;
21675;SDS011;10999;51.332;9.458;2023-05-31T04:33:06;9.90;;;3.67;;
21675;SDS011;10999;51.332;9.458;2023-05-31T04:35:33;12.50;;;4.03;;
21675;SDS011;10999;51.332;9.458;2023-05-31T04:38:00;12.50;;;4.05;;
21675;SDS011;10999;51.332;9.458;2023-05-31T04:40:29;8.90;;;4.25;;
21675;SDS011;10999;51.332;9.458;2023-05-31T04:42:59;8.05;;;3.22;;
21675;SDS011;10999;51.332;9.458;2023-05-31T04:45:29;11.00;;;3.90;;
21675;SDS011;10999;51.332;9.458;2023-05-31T04:47:59;9.68;;;3.63;;
21675;SDS011;10999;51.332;9.458;2023-05-31T04:50:26;8.00;;;3.10;;
21675;SDS011;10999;51.332;9.458;2023-05-31T04:52:56;11.25;;;3.58;;
21675;SDS011;10999;51.332;9.458;2023-05-31T04:55:23;8.90;;;3.92;;
21675;SDS011;10999;51.332;9.458;2023-05-31T04:57:52;9.50;;;3.75;;
21675;SDS011;10999;51.332;9.458;2023-05-31T05:00:19;10.07;;;4.32;;
21675;SDS011;10999;51.332;9.458;2023-05-31T05:02:46;10.20;;;3.65;;
21675;SDS011;10999;51.332;9.458;2023-05-31T05:05:13;9.30;;;3.80;;
21675;SDS011;10999;51.332;9.458;2023-05-31T05:07:42;8.90;;;3.58;;
21675;SDS011;10999;51.332;9.458;2023-05-31T05:10:09;10.57;;;4.68;;
21675;SDS011;10999;51.332;9.458;2023-05-31T05:12:36;11.65;;;3.88;;
21675;SDS011;10999;51.332;9.458;2023-05-31T05:15:03;12.57;;;3.95;;
21675;SDS011;10999;51.332;9.458;2023-05-31T05:17:30;12.02;;;3.60;;
21675;SDS011;10999;51.332;9.458;2023-05-31T05:19:56;9.95;;;3.53;;
21675;SDS011;10999;51.332;9.458;2023-05-31T05:22:23;13.18;;;3.92;;
21675;SDS011;10999;51.332;9.458;2023-05-31T05:24:50;13.02;;;3.92;;
21675;SDS011;10999;51.332;9.458;2023-05-31T05:27:17;10.90;;;3.97;;
21675;SDS011;10999;51.332;9.458;2023-05-31T05:29:44;11.77;;;3.42;;
21675;SDS011;10999;51.332;9.458;2023-05-31T05:32:10;9.63;;;3.25;;
21675;SDS011;10999;51.332;9.458;2023-05-31T05:34:37;9.00;;;3.80;;
21675;SDS011;10999;51.332;9.458;2023-05-31T05:37:04;13.30;;;4.82;;
21675;SDS011;10999;51.332;9.458;2023-05-31T05:39:31;16.48;;;4.18;;
21675;SDS011;10999;51.332;9.458;2023-05-31T05:41:58;9.75;;;3.40;;
21675;SDS011;10999;51.332;9.458;2023-05-31T05:44:25;9.00;;;4.15;;
21675;SDS011;10999;51.332;9.458;2023-05-31T05:46:52;8.13;;;3.13;;
21675;SDS011;10999;51.332;9.458;2023-05-31T05:49:18;9.73;;;3.88;;
21675;SDS011;10999;51.332;9.458;2023-05-31T05:51:46;12.85;;;3.75;;
21675;SDS011;10999;51.332;9.458;2023-05-31T05:54:12;8.65;;;3.25;;
21675;SDS011;10999;51.332;9.458;2023-05-31T05:56:39;8.65;;;3.20;;
21675;SDS011;10999;51.332;9.458;2023-05-31T05:59:06;9.25;;;3.60;;
21675;SDS011;10999;51.332;9.458;2023-05-31T06:01:35;9.73;;;3.13;;
21675;SDS011;10999;51.332;9.458;2023-05-31T06:04:01;8.10;;;3.08;;
21675;SDS011;10999;51.332;9.458;2023-05-31T06:06:28;9.52;;;4.00;;
21675;SDS011;10999;51.332;9.458;2023-05-31T06:08:55;13.10;;;4.03;;
21675;SDS011;10999;51.332;9.458;2023-05-31T06:11:22;9.57;;;3.58;;
21675;SDS011;10999;51.332;9.458;2023-05-31T06:13:49;13.15;;;3.67;;
21675;SDS011;10999;51.332;9.458;2023-05-31T06:16:16;8.27;;;2.88;;
21675;SDS011;10999;51.332;9.458;2023-05-31T06:18:47;7.45;;;3.05;;
21675;SDS011;10999;51.332;9.458;2023-05-31T06:21:14;8.98;;;3.17;;
21675;SDS011;10999;51.332;9.458;2023-05-31T06:23:40;7.70;;;3.30;;
21675;SDS011;10999;51.332;9.458;2023-05-31T06:26:07;7.63;;;2.95;;
21675;SDS011;10999;51.332;9.458;2023-05-31T06:28:34;8.13;;;2.78;;
21675;SDS011;10999;51.332;9.458;2023-05-31T06:31:03;9.75;;;3.60;;
21675;SDS011;10999;51.332;9.458;2023-05-31T06:33:29;9.85;;;3.30;;
21675;SDS011;10999;51.332;9.458;2023-05-31T06:35:56;8.70;;;2.88;;
21675;SDS011;10999;51.332;9.458;2023-05-31T06:38:23;9.18;;;2.92;;
21675;SDS011;10999;51.332;9.458;2023-05-31T06:40:50;5.63;;;2.53;;
21675;SDS011;10999;51.332;9.458;2023-05-31T06:43:18;8.98;;;2.90;;
21675;SDS011;10999;51.332;9.458;2023-05-31T06:45:45;10.65;;;3.40;;
21675;SDS011;10999;51.332;9.458;2023-05-31T06:48:14;7.95;;;2.65;;
21675;SDS011;10999;51.332;9.458;2023-05-31T06:50:40;8.65;;;3.10;;
21675;SDS011;10999;51.332;9.458;2023-05-31T06:53:08;12.25;;;3.50;;
21675;SDS011;10999;51.332;9.458;2023-05-31T06:55:35;8.85;;;3.03;;
21675;SDS011;10999;51.332;9.458;2023-05-31T06:58:05;7.53;;;2.70;;
21675;SDS011;10999;51.332;9.458;2023-05-31T07:00:32;9.43;;;2.75;;
21675;SDS011;10999;51.332;9.458;2023-05-31T07:02:59;6.90;;;2.42;;
21675;SDS011;10999;51.332;9.458;2023-05-31T07:05:26;8.32;;;2.95;;
21675;SDS011;10999;51.332;9.458;2023-05-31T07:07:54;11.02;;;3.00;;
21675;SDS011;10999;51.332;9.458;2023-05-31T07:10:21;8.05;;;2.80;;
21675;SDS011;10999;51.332;9.458;2023-05-31T07:12:48;6.25;;;2.47;;
21675;SDS011;10999;51.332;9.458;2023-05-31T07:15:17;8.68;;;2.90;;
21675;SDS011;10999;51.332;9.458;2023-05-31T07:17:43;8.10;;;2.60;;
21675;SDS011;10999;51.332;9.458;2023-05-31T07:20:12;8.77;;;3.05;;
21675;SDS011;10999;51.332;9.458;2023-05-31T07:22:39;10.55;;;2.92;;
21675;SDS011;10999;51.332;9.458;2023-05-31T07:25:06;10.40;;;2.85;;
21675;SDS011;10999;51.332;9.458;2023-05-31T07:27:33;9.88;;;3.00;;
21675;SDS011;10999;51.332;9.458;2023-05-31T07:30:00;8.60;;;2.42;;
21675;SDS011;10999;51.332;9.458;2023-05-31T07:32:27;8.77;;;2.45;;
21675;SDS011;10999;51.332;9.458;2023-05-31T07:34:54;9.07;;;2.42;;
21675;SDS011;10999;51.332;9.458;2023-05-31T07:37:29;6.75;;;2.40;;
21675;SDS011;10999;51.332;9.458;2023-05-31T07:39:56;10.27;;;2.05;;
21675;SDS011;10999;51.332;9.458;2023-05-31T07:42:23;5.57;;;1.90;;
21675;SDS011;10999;51.332;9.458;2023-05-31T07:44:50;6.82;;;2.30;;
21675;SDS011;10999;51.332;9.458;2023-05-31T07:47:17;7.45;;;2.33;;
21675;SDS011;10999;51.332;9.458;2023-05-31T07:49:45;8.23;;;2.17;;
21675;SDS011;10999;51.332;9.458;2023-05-31T07:52:12;5.75;;;2.00;;
21675;SDS011;10999;51.332;9.458;2023-05-31T07:54:39;5.93;;;2.13;;
21675;SDS011;10999;51.332;9.458;2023-05-31T07:57:06;7.30;;;2.05;;
21675;SDS011;10999;51.332;9.458;2023-05-31T07:59:33;6.47;;;1.70;;
21675;SDS011;10999;51.332;9.458;2023-05-31T08:02:00;5.82;;;2.17;;
21675;SDS011;10999;51.332;9.458;2023-05-31T08:04:26;8.32;;;2.30;;
21675;SDS011;10999;51.332;9.458;2023-05-31T08:06:53;5.05;;;1.88;;
21675;SDS011;10999;51.332;9.458;2023-05-31T08:09:20;7.47;;;2.25;;
21675;SDS011;10999;51.332;9.458;2023-05-31T08:11:47;6.45;;;1.90;;
21675;SDS011;10999;51.332;9.458;2023-05-31T08:14:14;9.65;;;2.20;;
21675;SDS011;10999;51.332;9.458;2023-05-31T08:16:41;6.38;;;1.85;;
21675;SDS011;10999;51.332;9.458;2023-05-31T08:19:08;5.75;;;2.13;;
21675;SDS011;10999;51.332;9.458;2023-05-31T08:21:34;6.03;;;1.65;;
21675;SDS011;10999;51.332;9.458;2023-05-31T08:24:04;7.38;;;2.30;;
21675;SDS011;10999;51.332;9.458;2023-05-31T08:26:32;7.03;;;1.80;;
21675;SDS011;10999;51.332;9.458;2023-05-31T08:28:59;7.70;;;1.88;;
21675;SDS011;10999;51.332;9.458;2023-05-31T08:31:26;5.70;;;1.90;;
21675;SDS011;10999;51.332;9.458;2023-05-31T08:33:57;6.50;;;1.88;;
21675;SDS011;10999;51.332;9.458;2023-05-31T08:36:25;5.97;;;1.83;;
21675;SDS011;10999;51.332;9.458;2023-05-31T08:38:52;4.03;;;1.50;;
21675;SDS011;10999;51.332;9.458;2023-05-31T08:41:19;6.75;;;1.73;;
21675;SDS011;10999;51.332;9.458;2023-05-31T08:43:48;5.88;;;1.60;;
21675;SDS011;10999;51.332;9.458;2023-05-31T08:46:16;6.40;;;2.35;;
21675;SDS011;10999;51.332;9.458;2023-05-31T08:49:02;7.10;;;1.83;;
21675;SDS011;10999;51.332;9.458;2023-05-31T08:51:37;5.35;;;1.55;;
21675;SDS011;10999;51.332;9.458;2023-05-31T08:54:05;5.38;;;1.42;;
21675;SDS011;10999;51.332;9.458;2023-05-31T08:56:33;6.32;;;1.67;;
21675;SDS011;10999;51.332;9.458;2023-05-31T08:59:00;5.18;;;1.77;;
21675;SDS011;10999;51.332;9.458;2023-05-31T09:01:29;7.93;;;1.70;;
21675;SDS011;10999;51.332;9.458;2023-05-31T09:03:56;4.82;;;1.40;;
21675;SDS011;10999;51.332;9.458;2023-05-31T09:06:24;6.22;;;1.58;;
21675;SDS011;10999;51.332;9.458;2023-05-31T09:08:51;7.00;;;1.67;;
21675;SDS011;10999;51.332;9.458;2023-05-31T09:11:17;5.15;;;1.58;;
21675;SDS011;10999;51.332;9.458;2023-05-31T09:13:44;5.45;;;1.85;;
21675;SDS011;10999;51.332;9.458;2023-05-31T09:16:11;7.22;;;1.90;;
21675;SDS011;10999;51.332;9.458;2023-05-31T09:18:38;5.47;;;1.33;;
21675;SDS011;10999;51.332;9.458;2023-05-31T09:21:13;4.65;;;1.60;;
21675;SDS011;10999;51.332;9.458;2023-05-31T09:23:53;5.22;;;1.38;;
21675;SDS011;10999;51.332;9.458;2023-05-31T09:26:21;5.15;;;1.40;;
21675;SDS011;10999;51.332;9.458;2023-05-31T09:28:53;6.65;;;1.60;;
21675;SDS011;10999;51.332;9.458;2023-05-31T09:31:21;7.18;;;1.80;;
21675;SDS011;10999;51.332;9.458;2023-05-31T09:33:48;3.28;;;1.10;;
21675;SDS011;10999;51.332;9.458;2023-05-31T09:36:24;3.75;;;1.40;;
21675;SDS011;10999;51.332;9.458;2023-05-31T09:38:59;6.72;;;1.70;;
21675;SDS011;10999;51.332;9.458;2023-05-31T09:41:31;4.53;;;1.40;;
21675;SDS011;10999;51.332;9.458;2023-05-31T09:43:59;6.60;;;1.65;;
21675;SDS011;10999;51.332;9.458;2023-05-31T09:46:26;4.18;;;1.67;;
21675;SDS011;10999;51.332;9.458;2023-05-31T09:49:11;6.28;;;1.60;;
21675;SDS011;10999;51.332;9.458;2023-05-31T09:51:38;5.68;;;1.40;;
21675;SDS011;10999;51.332;9.458;2023-05-31T09:54:10;4.20;;;1.40;;
21675;SDS011;10999;51.332;9.458;2023-05-31T09:56:41;5.55;;;1.35;;
21675;SDS011;10999;51.332;9.458;2023-05-31T09:59:09;4.78;;;1.42;;
21675;SDS011;10999;51.332;9.458;2023-05-31T10:01:37;3.88;;;1.30;;
21675;SDS011;10999;51.332;9.458;2023-05-31T10:04:04;4.10;;;1.50;;
21675;SDS011;10999;51.332;9.458;2023-05-31T10:06:32;6.25;;;1.27;;
21675;SDS011;10999;51.332;9.458;2023-05-31T10:09:05;4.30;;;1.45;;
21675;SDS011;10999;51.332;9.458;2023-05-31T10:11:34;4.88;;;1.63;;
21675;SDS011;10999;51.332;9.458;2023-05-31T10:14:03;3.33;;;1.10;;
21675;SDS011;10999;51.332;9.458;2023-05-31T10:16:36;5.47;;;1.58;;
21675;SDS011;10999;51.332;9.458;2023-05-31T10:19:10;4.45;;;1.33;;
21675;SDS011;10999;51.332;9.458;2023-05-31T10:21:41;8.70;;;1.75;;
21675;SDS011;10999;51.332;9.458;2023-05-31T10:24:25;3.17;;;1.40;;
21675;SDS011;10999;51.332;9.458;2023-05-31T10:29:50;5.45;;;1.83;;
21675;SDS011;10999;51.332;9.458;2023-05-31T10:32:19;5.82;;;1.42;;
21675;SDS011;10999;51.332;9.458;2023-05-31T10:34:48;5.78;;;1.50;;
21675;SDS011;10999;51.332;9.458;2023-05-31T10:37:16;5.03;;;1.45;;
21675;SDS011;10999;51.332;9.458;2023-05-31T10:39:54;5.00;;;1.60;;
21675;SDS011;10999;51.332;9.458;2023-05-31T10:47:52;6.30;;;1.42;;
21675;SDS011;10999;51.332;9.458;2023-05-31T10:50:28;6.13;;;1.80;;
21675;SDS011;10999;51.332;9.458;2023-05-31T10:53:08;4.18;;;1.23;;
21675;SDS011;10999;51.332;9.458;2023-05-31T10:55:41;4.25;;;1.30;;
21675;SDS011;10999;51.332;9.458;2023-05-31T11:01:05;6.78;;;1.80;;
21675;SDS011;10999;51.332;9.458;2023-05-31T11:03:34;5.38;;;1.50;;
21675;SDS011;10999;51.332;9.458;2023-05-31T11:06:06;3.95;;;1.10;;
21675;SDS011;10999;51.332;9.458;2023-05-31T11:08:35;3.50;;;1.20;;
21675;SDS011;10999;51.332;9.458;2023-05-31T11:16:33;4.07;;;1.20;;
21675;SDS011;10999;51.332;9.458;2023-05-31T11:19:29;3.70;;;1.58;;
21675;SDS011;10999;51.332;9.458;2023-05-31T11:21:57;7.47;;;1.65;;
21675;SDS011;10999;51.332;9.458;2023-05-31T11:24:48;3.47;;;0.95;;
21675;SDS011;10999;51.332;9.458;2023-05-31T11:27:21;3.95;;;1.50;;
21675;SDS011;10999;51.332;9.458;2023-05-31T11:32:53;4.88;;;1.40;;
21675;SDS011;10999;51.332;9.458;2023-05-31T11:40:09;4.72;;;1.10;;
21675;SDS011;10999;51.332;9.458;2023-05-31T11:42:39;2.85;;;1.02;;
21675;SDS011;10999;51.332;9.458;2023-05-31T11:45:08;3.95;;;1.38;;
21675;SDS011;10999;51.332;9.458;2023-05-31T11:47:46;4.80;;;1.20;;
21675;SDS011;10999;51.332;9.458;2023-05-31T11:50:22;3.67;;;1.35;;
21675;SDS011;10999;51.332;9.458;2023-05-31T11:52:50;8.82;;;1.63;;
21675;SDS011;10999;51.332;9.458;2023-05-31T11:55:17;6.13;;;1.35;;
21675;SDS011;10999;51.332;9.458;2023-05-31T11:57:46;3.63;;;1.27;;
21675;SDS011;10999;51.332;9.458;2023-05-31T12:00:18;4.82;;;1.20;;
21675;SDS011;10999;51.332;9.458;2023-05-31T12:02:51;5.07;;;1.13;;
21675;SDS011;10999;51.332;9.458;2023-05-31T12:05:20;5.95;;;1.33;;
21675;SDS011;10999;51.332;9.458;2023-05-31T12:07:51;5.13;;;1.20;;
21675;SDS011;10999;51.332;9.458;2023-05-31T12:10:19;4.47;;;1.35;;
21675;SDS011;10999;51.332;9.458;2023-05-31T12:12:46;4.28;;;1.45;;
21675;SDS011;10999;51.332;9.458;2023-05-31T12:15:14;4.00;;;1.50;;
21675;SDS011;10999;51.332;9.458;2023-05-31T12:17:42;3.95;;;1.20;;
21675;SDS011;10999;51.332;9.458;2023-05-31T12:20:09;5.30;;;1.67;;
21675;SDS011;10999;51.332;9.458;2023-05-31T12:22:40;6.82;;;1.80;;
21675;SDS011;10999;51.332;9.458;2023-05-31T12:25:08;7.72;;;1.40;;
21675;SDS011;10999;51.332;9.458;2023-05-31T12:27:35;5.72;;;1.63;;
21675;SDS011;10999;51.332;9.458;2023-05-31T12:30:15;6.55;;;1.50;;
21675;SDS011;10999;51.332;9.458;2023-05-31T12:32:44;4.68;;;1.60;;
21675;SDS011;10999;51.332;9.458;2023-05-31T12:35:12;4.32;;;1.45;;
21675;SDS011;10999;51.332;9.458;2023-05-31T12:37:39;3.85;;;1.40;;
21675;SDS011;10999;51.332;9.458;2023-05-31T12:40:15;5.60;;;1.42;;
21675;SDS011;10999;51.332;9.458;2023-05-31T12:42:48;3.75;;;1.58;;
21675;SDS011;10999;51.332;9.458;2023-05-31T12:45:17;6.53;;;1.52;;
21675;SDS011;10999;51.332;9.458;2023-05-31T12:47:44;6.05;;;1.40;;
21675;SDS011;10999;51.332;9.458;2023-05-31T12:50:22;7.55;;;1.80;;
21675;SDS011;10999;51.332;9.458;2023-05-31T12:52:55;5.75;;;1.40;;
21675;SDS011;10999;51.332;9.458;2023-05-31T12:55:22;6.00;;;1.70;;
21675;SDS011;10999;51.332;9.458;2023-05-31T12:57:50;4.70;;;1.38;;
21675;SDS011;10999;51.332;9.458;2023-05-31T13:00:18;7.75;;;1.95;;
21675;SDS011;10999;51.332;9.458;2023-05-31T13:02:45;4.18;;;1.33;;
21675;SDS011;10999;51.332;9.458;2023-05-31T13:05:12;7.07;;;2.08;;
21675;SDS011;10999;51.332;9.458;2023-05-31T13:07:39;5.78;;;1.90;;
21675;SDS011;10999;51.332;9.458;2023-05-31T13:10:06;7.00;;;1.98;;
21675;SDS011;10999;51.332;9.458;2023-05-31T13:12:38;5.05;;;1.38;;
21675;SDS011;10999;51.332;9.458;2023-05-31T13:15:04;5.47;;;1.63;;
21675;SDS011;10999;51.332;9.458;2023-05-31T13:17:33;5.07;;;1.65;;
21675;SDS011;10999;51.332;9.458;2023-05-31T13:20:00;5.13;;;1.58;;
21675;SDS011;10999;51.332;9.458;2023-05-31T13:22:38;4.18;;;1.40;;
21675;SDS011;10999;51.332;9.458;2023-05-31T13:25:05;4.47;;;1.52;;
21675;SDS011;10999;51.332;9.458;2023-05-31T13:27:33;3.70;;;1.38;;
21675;SDS011;10999;51.332;9.458;2023-05-31T13:30:00;5.15;;;2.20;;
21675;SDS011;10999;51.332;9.458;2023-05-31T13:32:27;2.97;;;1.33;;
21675;SDS011;10999;51.332;9.458;2023-05-31T13:34:54;5.30;;;2.00;;
21675;SDS011;10999;51.332;9.458;2023-05-31T13:37:26;6.43;;;1.65;;
21675;SDS011;10999;51.332;9.458;2023-05-31T13:39:52;6.82;;;1.83;;
21675;SDS011;10999;51.332;9.458;2023-05-31T13:42:22;6.95;;;1.77;;
21675;SDS011;10999;51.332;9.458;2023-05-31T13:44:49;6.47;;;1.92;;
21675;SDS011;10999;51.332;9.458;2023-05-31T13:47:16;5.43;;;1.60;;
21675;SDS011;10999;51.332;9.458;2023-05-31T13:49:43;5.18;;;1.65;;
21675;SDS011;10999;51.332;9.458;2023-05-31T13:52:09;5.20;;;1.98;;
21675;SDS011;10999;51.332;9.458;2023-05-31T13:54:40;7.35;;;1.48;;
21675;SDS011;10999;51.332;9.458;2023-05-31T13:57:07;8.30;;;1.80;;
21675;SDS011;10999;51.332;9.458;2023-05-31T13:59:34;4.57;;;1.52;;
21675;SDS011;10999;51.332;9.458;2023-05-31T14:02:01;7.90;;;1.50;;
21675;SDS011;10999;51.332;9.458;2023-05-31T14:04:28;5.28;;;1.52;;
21675;SDS011;10999;51.332;9.458;2023-05-31T14:06:54;6.25;;;1.90;;
21675;SDS011;10999;51.332;9.458;2023-05-31T14:09:21;4.32;;;1.40;;
21675;SDS011;10999;51.332;9.458;2023-05-31T14:11:48;4.30;;;1.33;;
21675;SDS011;10999;51.332;9.458;2023-05-31T14:14:14;4.82;;;1.35;;
21675;SDS011;10999;51.332;9.458;2023-05-31T14:16:41;7.30;;;1.95;;
21675;SDS011;10999;51.332;9.458;2023-05-31T14:19:08;4.53;;;1.50;;
21675;SDS011;10999;51.332;9.458;2023-05-31T14:21:35;8.30;;;1.65;;
21675;SDS011;10999;51.332;9.458;2023-05-31T14:24:08;6.15;;;1.70;;
21675;SDS011;10999;51.332;9.458;2023-05-31T14:26:35;4.15;;;1.42;;
21675;SDS011;10999;51.332;9.458;2023-05-31T14:29:02;7.28;;;1.67;;
21675;SDS011;10999;51.332;9.458;2023-05-31T14:31:28;6.18;;;1.77;;
21675;SDS011;10999;51.332;9.458;2023-05-31T14:33:55;3.95;;;1.95;;
21675;SDS011;10999;51.332;9.458;2023-05-31T14:36:22;7.78;;;1.70;;
21675;SDS011;10999;51.332;9.458;2023-05-31T14:38:50;5.18;;;1.40;;
21675;SDS011;10999;51.332;9.458;2023-05-31T14:41:17;5.50;;;1.60;;
21675;SDS011;10999;51.332;9.458;2023-05-31T14:43:44;4.30;;;1.40;;
21675;SDS011;10999;51.332;9.458;2023-05-31T14:46:12;7.18;;;2.00;;
21675;SDS011;10999;51.332;9.458;2023-05-31T14:48:39;7.50;;;1.55;;
21675;SDS011;10999;51.332;9.458;2023-05-31T14:51:07;5.55;;;1.40;;
21675;SDS011;10999;51.332;9.458;2023-05-31T14:53:34;5.30;;;1.63;;
21675;SDS011;10999;51.332;9.458;2023-05-31T14:56:01;5.95;;;1.67;;
21675;SDS011;10999;51.332;9.458;2023-05-31T14:58:31;5.75;;;1.65;;
21675;SDS011;10999;51.332;9.458;2023-05-31T15:00:58;7.45;;;1.45;;
21675;SDS011;10999;51.332;9.458;2023-05-31T15:03:26;4.20;;;1.67;;
21675;SDS011;10999;51.332;9.458;2023-05-31T15:05:53;4.15;;;1.48;;
21675;SDS011;10999;51.332;9.458;2023-05-31T15:08:19;5.47;;;1.70;;
21675;SDS011;10999;51.332;9.458;2023-05-31T15:10:46;5.57;;;1.98;;
21675;SDS011;10999;51.332;9.458;2023-05-31T15:13:13;7.05;;;1.73;;
21675;SDS011;10999;51.332;9.458;2023-05-31T15:15:40;4.60;;;1.48;;
21675;SDS011;10999;51.332;9.458;2023-05-31T15:18:07;5.25;;;1.75;;
21675;SDS011;10999;51.332;9.458;2023-05-31T15:20:34;5.70;;;1.92;;
21675;SDS011;10999;51.332;9.458;2023-05-31T15:23:00;4.75;;;1.30;;
21675;SDS011;10999;51.332;9.458;2023-05-31T15:25:27;6.75;;;1.75;;